Hamlin, Maine
Current Conditions -  °F | °C
As of 10:54 PM on Tuesday 27 Jan 2015 (Local Time) from KCAR Reporting Station
Light Snow Light Snow  
Wind Chill: -10°   Ceiling: 5500
Heat Index:   Visibility: 4mi
Dew Point:   Wind: 20mph
Humidity: 80%   Direction: 20°NNE
Pressure: 29.78"   Gusts: 26mph
Location:  47.123°N, 67.9773°W
Report Text: KCAR 280354Z AUTO 02017G23KT 4SM -SN OVC055 M13/M16 A2978 RMK AO2 PK WND 01027/0324 SLP103 P0000 T11281156
Loading
Personal Weather Stations






























Interactive Weather Map New forecast layout! Learn more

10-Day Weather Forecast

Advertisements
Track Severe Weather on mobile